»·PEaware :: N416JK KMOD-KBFL

N416JK :: KMOD-KBFL

FLIGHT INFORMATION

Flight Status: Arrived
Operator: Privately registered:
United States
More flights under this callsign
Pilot: John K. (4202)
Aircraft: Unknown
(EPIC)
More flights by this aircraft type
Origin: KMOD Modesto City-Co-Sham
United States
Destination: KBFL Meadows
United States
More flights between these airports :: More routes between these airports
Route: +AWALI V23 DELNO
File this flight plan on PilotEdge
Remarks:
Altitude:
(Current/Filed)
11,000ft
Speed:
(Current/Filed)
280kts
Departed: 28-Aug-19 09:00 AM
Arrived: 28-Aug-19 09:50 AM
Distance/Time
Traveled:
161nm/0:50
Distance/Time
To Go:
Arrived

Flight Plot

Page will automatically refresh every two minutes.

Flight plan parsing failed; only flown route is shown


Map Options




Map Legend


Flown Route
Filed Route
Departure Airport
Arrival Airport
Navaid (VOR, NDB)
Fix

Horizontal Profiles

Position Reports

Time Latitude Longitude Heading Altitude Ground
Speed
28-Aug-19 08:48 37.624381 -120.947953 216 101ft 0kts
28-Aug-19 08:49 37.624381 -120.947953 216 101ft 0kts
28-Aug-19 08:50 37.624381 -120.947953 216 101ft 0kts
28-Aug-19 08:51 37.624381 -120.947953 216 101ft 0kts
28-Aug-19 08:52 37.624381 -120.947953 216 101ft 0kts
28-Aug-19 08:53 37.624381 -120.947953 216 101ft 0kts
28-Aug-19 08:54 37.624381 -120.947953 216 101ft 0kts
28-Aug-19 08:55 37.624381 -120.947953 216 101ft 0kts
28-Aug-19 08:56 37.624381 -120.947953 216 101ft 0kts
28-Aug-19 08:57 37.624381 -120.947953 216 101ft 0kts
28-Aug-19 08:58 37.621307 -120.942961 191 101ft 0kts
28-Aug-19 08:59 37.622826 -120.947325 306 101ft 105kts
28-Aug-19 09:00 37.640954 -120.977086 329 2212ft 166kts
28-Aug-19 09:01 37.668835 -120.958625 67 5034ft 186kts
28-Aug-19 09:02 37.665420 -120.892361 100 6782ft 250kts
28-Aug-19 09:03 37.656916 -120.813029 100 8537ft 268kts
28-Aug-19 09:04 37.648384 -120.733435 100 10232ft 270kts
28-Aug-19 09:05 37.639661 -120.652300 100 10998ft 290kts
28-Aug-19 09:06 37.631238 -120.575079 102 11007ft 307kts
28-Aug-19 09:07 37.587961 -120.512939 141 11007ft 306kts
28-Aug-19 09:08 37.534431 -120.458419 142 11007ft 302kts
28-Aug-19 09:09 37.483031 -120.406934 142 11006ft 297kts
28-Aug-19 09:10 37.429009 -120.353047 142 11010ft 296kts
28-Aug-19 09:11 37.365113 -120.289416 142 11001ft 296kts
28-Aug-19 09:12 37.306248 -120.230954 142 10982ft 296kts
28-Aug-19 09:13 37.247487 -120.172781 142 10982ft 296kts
28-Aug-19 09:14 37.190026 -120.115948 142 11000ft 293kts
28-Aug-19 09:15 37.135608 -120.062246 142 10999ft 289kts
28-Aug-19 09:16 37.083265 -120.010659 142 10999ft 287kts
28-Aug-19 09:17 37.025887 -119.954262 142 10999ft 287kts
28-Aug-19 09:18 36.968602 -119.898050 143 10999ft 287kts
28-Aug-19 09:19 36.910393 -119.840493 142 11000ft 287kts
28-Aug-19 09:20 36.849707 -119.797043 157 10999ft 286kts
28-Aug-19 09:21 36.796787 -119.769279 157 10999ft 286kts
28-Aug-19 09:22 36.726705 -119.732740 157 10999ft 286kts
28-Aug-19 09:23 36.655983 -119.695926 156 10999ft 287kts
28-Aug-19 09:24 36.585178 -119.659203 157 11007ft 286kts
28-Aug-19 09:25 36.514466 -119.622599 156 11002ft 287kts
28-Aug-19 09:26 36.443426 -119.585872 156 10999ft 287kts
28-Aug-19 09:27 36.384534 -119.555476 156 11001ft 287kts
28-Aug-19 09:28 36.332952 -119.528992 157 10848ft 292kts
28-Aug-19 09:29 36.262761 -119.492990 156 9788ft 271kts
28-Aug-19 09:30 36.198286 -119.459929 156 9017ft 258kts
28-Aug-19 09:31 36.135209 -119.427675 156 9009ft 260kts
28-Aug-19 09:32 36.074144 -119.396458 156 9001ft 260kts
28-Aug-19 09:33 36.014447 -119.365858 156 8999ft 256kts
28-Aug-19 09:34 35.957889 -119.336829 156 8615ft 261kts
28-Aug-19 09:35 35.903174 -119.308355 156 7482ft 266kts
28-Aug-19 09:36 35.845984 -119.277818 156 6304ft 268kts
28-Aug-19 09:37 35.791987 -119.248292 156 5343ft 259kts
28-Aug-19 09:38 35.737809 -119.217878 156 4999ft 241kts
28-Aug-19 09:39 35.685924 -119.188129 156 4998ft 232kts
28-Aug-19 09:40 35.635666 -119.158805 155 4264ft 254kts
28-Aug-19 09:41 35.578552 -119.128526 162 2808ft 235kts
28-Aug-19 09:42 35.526771 -119.103006 155 2053ft 201kts
28-Aug-19 09:43 35.491003 -119.080643 147 1899ft 153kts
28-Aug-19 09:44 35.462039 -119.058544 142 1874ft 141kts
28-Aug-19 09:45 35.440468 -119.026587 128 1690ft 147kts
28-Aug-19 09:46 35.422425 -119.001292 173 1634ft 137kts
28-Aug-19 09:47 35.410113 -119.027430 314 1132ft 126kts
28-Aug-19 09:48 35.431654 -119.053493 313 541ft 92kts
28-Aug-19 09:49 35.440337 -119.063375 28 508ft 14kts
28-Aug-19 09:50 35.440309 -119.061701 138 508ft 37kts
28-Aug-19 09:51 35.431283 -119.050830 131 508ft 33kts
28-Aug-19 09:52 35.429218 -119.046379 198 508ft 5kts

Navigation Log

Ident Type
Flight plan parsing failed, navigation log unavailable